CheckWX is a tool to help pilots better visualize weather data.  It is not intended as a substitute for an official pre-flight weather briefing.

09:58:31 UTC

EICK METAR
Cork Airport
Cork, Ireland
Current

29 mins ago

EICK 210930Z 23009KT 9999 BKN008 BKN012 10/09 Q1032 NOSIG
Observed
Mar-21 @ 09:30 UTC
Wind
  • 230° at 9 KTS
Visibility
10,000+ meters
Flight Rules
IFR
Cloud Levels
  • Broken at 800' AGL
  • Broken at 1,200' AGL
Temperature
10°C / 50°F
Dewpoint
C / 48°F
Humidity
94%
Altimeter
30.47" Hg
Pressure
1031.91 hPa
Previous

59 mins ago

EICK 210900Z 25007KT 210V280 9999 FEW005 BKN008 BKN012 10/08 Q1032 BECMG BKN013
Observed
Mar-21 @ 09:00 UTC
Wind
  • 250° at 7 KTS
Visibility
10,000+ meters
Flight Rules
IFR
Cloud Levels
  • Few at 500' AGL
  • Broken at 800' AGL
  • Broken at 1,200' AGL
Temperature
10°C / 50°F
Dewpoint
C / 46°F
Humidity
88%
Altimeter
30.47" Hg
Pressure
1031.91 hPa
Previous

1 hour ago

EICK 210830Z 24006KT 9999 SCT003 BKN009 09/09 Q1032 NOSIG
Observed
Mar-21 @ 08:30 UTC
Wind
  • 240° at 6 KTS
Visibility
10,000+ meters
Flight Rules
IFR
Cloud Levels
  • Scattered at 300' AGL
  • Broken at 900' AGL
Temperature
C / 48°F
Dewpoint
C / 48°F
Humidity
100%
Altimeter
30.47" Hg
Pressure
1031.91 hPa